sensor_id;sensor_type;location;lat;lon;timestamp;P1;durP1;ratioP1;P2;durP2;ratioP2
20154;SDS011;10238;49.556;10.956;2022-12-10T00:01:05;24.45;;;13.65;;
20154;SDS011;10238;49.556;10.956;2022-12-10T00:03:54;28.02;;;14.35;;
20154;SDS011;10238;49.556;10.956;2022-12-10T00:06:42;24.27;;;13.10;;
20154;SDS011;10238;49.556;10.956;2022-12-10T00:09:30;25.20;;;13.10;;
20154;SDS011;10238;49.556;10.956;2022-12-10T00:12:20;23.98;;;13.07;;
20154;SDS011;10238;49.556;10.956;2022-12-10T00:15:08;24.60;;;13.80;;
20154;SDS011;10238;49.556;10.956;2022-12-10T00:17:56;24.98;;;13.52;;
20154;SDS011;10238;49.556;10.956;2022-12-10T00:20:45;24.25;;;14.25;;
20154;SDS011;10238;49.556;10.956;2022-12-10T00:23:33;22.40;;;12.50;;
20154;SDS011;10238;49.556;10.956;2022-12-10T00:26:23;21.35;;;12.55;;
20154;SDS011;10238;49.556;10.956;2022-12-10T00:29:13;22.00;;;13.27;;
20154;SDS011;10238;49.556;10.956;2022-12-10T00:32:01;22.60;;;12.98;;
20154;SDS011;10238;49.556;10.956;2022-12-10T00:34:51;23.40;;;13.55;;
20154;SDS011;10238;49.556;10.956;2022-12-10T00:37:39;24.10;;;12.98;;
20154;SDS011;10238;49.556;10.956;2022-12-10T00:40:27;23.17;;;13.15;;
20154;SDS011;10238;49.556;10.956;2022-12-10T00:43:15;23.60;;;12.30;;
20154;SDS011;10238;49.556;10.956;2022-12-10T00:46:04;20.27;;;11.98;;
20154;SDS011;10238;49.556;10.956;2022-12-10T00:48:53;22.38;;;12.85;;
20154;SDS011;10238;49.556;10.956;2022-12-10T00:51:40;21.73;;;12.43;;
20154;SDS011;10238;49.556;10.956;2022-12-10T00:54:28;22.20;;;11.90;;
20154;SDS011;10238;49.556;10.956;2022-12-10T00:57:17;22.20;;;12.65;;
20154;SDS011;10238;49.556;10.956;2022-12-10T01:00:05;25.42;;;12.80;;
20154;SDS011;10238;49.556;10.956;2022-12-10T01:02:56;21.80;;;11.77;;
20154;SDS011;10238;49.556;10.956;2022-12-10T01:05:44;20.80;;;12.65;;
20154;SDS011;10238;49.556;10.956;2022-12-10T01:08:31;24.60;;;12.55;;
20154;SDS011;10238;49.556;10.956;2022-12-10T01:11:20;28.55;;;12.63;;
20154;SDS011;10238;49.556;10.956;2022-12-10T01:14:11;28.27;;;13.55;;
20154;SDS011;10238;49.556;10.956;2022-12-10T01:19:53;24.42;;;13.18;;
20154;SDS011;10238;49.556;10.956;2022-12-10T01:22:41;23.08;;;12.85;;
20154;SDS011;10238;49.556;10.956;2022-12-10T01:25:30;24.92;;;12.27;;
20154;SDS011;10238;49.556;10.956;2022-12-10T01:28:17;23.98;;;12.85;;
20154;SDS011;10238;49.556;10.956;2022-12-10T01:31:07;26.95;;;12.57;;
20154;SDS011;10238;49.556;10.956;2022-12-10T01:33:56;22.75;;;13.07;;
20154;SDS011;10238;49.556;10.956;2022-12-10T01:36:48;23.88;;;11.68;;
20154;SDS011;10238;49.556;10.956;2022-12-10T01:39:37;23.40;;;13.02;;
20154;SDS011;10238;49.556;10.956;2022-12-10T01:42:25;24.13;;;12.73;;
20154;SDS011;10238;49.556;10.956;2022-12-10T01:45:13;24.10;;;12.68;;
20154;SDS011;10238;49.556;10.956;2022-12-10T01:48:01;20.67;;;11.57;;
20154;SDS011;10238;49.556;10.956;2022-12-10T01:50:52;23.23;;;12.50;;
20154;SDS011;10238;49.556;10.956;2022-12-10T01:53:42;22.95;;;12.50;;
20154;SDS011;10238;49.556;10.956;2022-12-10T01:56:31;24.52;;;13.77;;
20154;SDS011;10238;49.556;10.956;2022-12-10T01:59:23;15.60;;;9.00;;
20154;SDS011;10238;49.556;10.956;2022-12-10T02:02:12;24.20;;;12.63;;
20154;SDS011;10238;49.556;10.956;2022-12-10T02:05:12;22.23;;;12.60;;
20154;SDS011;10238;49.556;10.956;2022-12-10T02:08:08;25.05;;;12.48;;
20154;SDS011;10238;49.556;10.956;2022-12-10T02:11:07;23.83;;;12.02;;
20154;SDS011;10238;49.556;10.956;2022-12-10T02:14:04;22.13;;;12.13;;
20154;SDS011;10238;49.556;10.956;2022-12-10T02:16:59;21.67;;;12.65;;
20154;SDS011;10238;49.556;10.956;2022-12-10T02:19:55;25.35;;;13.07;;
20154;SDS011;10238;49.556;10.956;2022-12-10T02:22:49;22.65;;;12.52;;
20154;SDS011;10238;49.556;10.956;2022-12-10T02:25:41;18.38;;;11.82;;
20154;SDS011;10238;49.556;10.956;2022-12-10T02:28:38;22.05;;;12.43;;
20154;SDS011;10238;49.556;10.956;2022-12-10T02:31:33;22.92;;;12.13;;
20154;SDS011;10238;49.556;10.956;2022-12-10T02:34:27;23.08;;;12.63;;
20154;SDS011;10238;49.556;10.956;2022-12-10T02:37:21;21.42;;;12.23;;
20154;SDS011;10238;49.556;10.956;2022-12-10T02:40:15;23.42;;;12.32;;
20154;SDS011;10238;49.556;10.956;2022-12-10T02:43:06;25.05;;;12.70;;
20154;SDS011;10238;49.556;10.956;2022-12-10T02:45:56;21.05;;;11.63;;
20154;SDS011;10238;49.556;10.956;2022-12-10T02:48:47;23.02;;;11.93;;
20154;SDS011;10238;49.556;10.956;2022-12-10T02:51:36;22.83;;;12.25;;
20154;SDS011;10238;49.556;10.956;2022-12-10T02:54:35;21.55;;;12.15;;
20154;SDS011;10238;49.556;10.956;2022-12-10T02:57:31;18.42;;;12.43;;
20154;SDS011;10238;49.556;10.956;2022-12-10T03:00:26;21.75;;;12.13;;
20154;SDS011;10238;49.556;10.956;2022-12-10T03:03:23;21.35;;;12.88;;
20154;SDS011;10238;49.556;10.956;2022-12-10T03:06:20;19.63;;;11.50;;
20154;SDS011;10238;49.556;10.956;2022-12-10T03:09:16;23.38;;;12.68;;
20154;SDS011;10238;49.556;10.956;2022-12-10T03:12:10;20.05;;;11.68;;
20154;SDS011;10238;49.556;10.956;2022-12-10T03:15:07;23.83;;;12.43;;
20154;SDS011;10238;49.556;10.956;2022-12-10T03:17:57;21.75;;;12.02;;
20154;SDS011;10238;49.556;10.956;2022-12-10T03:20:48;20.33;;;11.15;;
20154;SDS011;10238;49.556;10.956;2022-12-10T03:23:42;20.42;;;12.25;;
20154;SDS011;10238;49.556;10.956;2022-12-10T03:26:32;17.48;;;11.00;;
20154;SDS011;10238;49.556;10.956;2022-12-10T03:29:21;21.48;;;11.77;;
20154;SDS011;10238;49.556;10.956;2022-12-10T03:32:11;20.98;;;11.48;;
20154;SDS011;10238;49.556;10.956;2022-12-10T03:35:00;21.17;;;11.38;;
20154;SDS011;10238;49.556;10.956;2022-12-10T03:37:50;22.67;;;13.00;;
20154;SDS011;10238;49.556;10.956;2022-12-10T03:40:40;18.13;;;11.10;;
20154;SDS011;10238;49.556;10.956;2022-12-10T03:43:28;22.27;;;11.55;;
20154;SDS011;10238;49.556;10.956;2022-12-10T03:46:16;20.08;;;11.43;;
20154;SDS011;10238;49.556;10.956;2022-12-10T03:49:05;17.73;;;10.65;;
20154;SDS011;10238;49.556;10.956;2022-12-10T03:51:53;18.00;;;11.43;;
20154;SDS011;10238;49.556;10.956;2022-12-10T03:54:41;18.25;;;10.95;;
20154;SDS011;10238;49.556;10.956;2022-12-10T03:57:30;19.25;;;10.73;;
20154;SDS011;10238;49.556;10.956;2022-12-10T04:00:18;19.92;;;11.35;;
20154;SDS011;10238;49.556;10.956;2022-12-10T04:03:08;22.38;;;11.70;;
20154;SDS011;10238;49.556;10.956;2022-12-10T04:06:00;17.42;;;10.90;;
20154;SDS011;10238;49.556;10.956;2022-12-10T04:08:49;18.38;;;11.05;;
20154;SDS011;10238;49.556;10.956;2022-12-10T04:11:43;19.30;;;11.40;;
20154;SDS011;10238;49.556;10.956;2022-12-10T04:14:32;20.77;;;11.30;;
20154;SDS011;10238;49.556;10.956;2022-12-10T04:17:38;20.80;;;11.40;;
20154;SDS011;10238;49.556;10.956;2022-12-10T04:20:26;18.85;;;11.30;;
20154;SDS011;10238;49.556;10.956;2022-12-10T04:23:31;19.35;;;10.82;;
20154;SDS011;10238;49.556;10.956;2022-12-10T04:26:36;19.38;;;10.35;;
20154;SDS011;10238;49.556;10.956;2022-12-10T04:29:42;18.98;;;10.77;;
20154;SDS011;10238;49.556;10.956;2022-12-10T04:32:30;21.48;;;11.98;;
20154;SDS011;10238;49.556;10.956;2022-12-10T04:35:19;22.05;;;11.15;;
20154;SDS011;10238;49.556;10.956;2022-12-10T04:38:07;18.90;;;10.85;;
20154;SDS011;10238;49.556;10.956;2022-12-10T04:40:55;20.40;;;11.07;;
20154;SDS011;10238;49.556;10.956;2022-12-10T04:43:43;16.77;;;10.05;;
20154;SDS011;10238;49.556;10.956;2022-12-10T04:46:32;19.20;;;10.85;;
20154;SDS011;10238;49.556;10.956;2022-12-10T04:49:21;17.75;;;11.15;;
20154;SDS011;10238;49.556;10.956;2022-12-10T04:52:10;17.98;;;10.75;;
20154;SDS011;10238;49.556;10.956;2022-12-10T04:54:59;19.98;;;11.50;;
20154;SDS011;10238;49.556;10.956;2022-12-10T04:57:47;24.13;;;11.88;;
20154;SDS011;10238;49.556;10.956;2022-12-10T05:00:35;18.55;;;10.98;;
20154;SDS011;10238;49.556;10.956;2022-12-10T05:03:24;18.40;;;11.20;;
20154;SDS011;10238;49.556;10.956;2022-12-10T05:06:13;21.35;;;11.98;;
20154;SDS011;10238;49.556;10.956;2022-12-10T05:09:03;21.65;;;12.32;;
20154;SDS011;10238;49.556;10.956;2022-12-10T05:11:52;20.42;;;11.55;;
20154;SDS011;10238;49.556;10.956;2022-12-10T05:14:40;22.20;;;11.63;;
20154;SDS011;10238;49.556;10.956;2022-12-10T05:17:28;21.70;;;11.43;;
20154;SDS011;10238;49.556;10.956;2022-12-10T05:20:17;21.05;;;11.95;;
20154;SDS011;10238;49.556;10.956;2022-12-10T05:23:05;21.25;;;11.43;;
20154;SDS011;10238;49.556;10.956;2022-12-10T05:26:12;21.95;;;11.10;;
20154;SDS011;10238;49.556;10.956;2022-12-10T05:29:01;23.05;;;12.40;;
20154;SDS011;10238;49.556;10.956;2022-12-10T05:31:49;19.20;;;11.73;;
20154;SDS011;10238;49.556;10.956;2022-12-10T05:34:37;21.17;;;11.60;;
20154;SDS011;10238;49.556;10.956;2022-12-10T05:37:29;23.17;;;12.68;;
20154;SDS011;10238;49.556;10.956;2022-12-10T05:40:17;23.92;;;12.25;;
20154;SDS011;10238;49.556;10.956;2022-12-10T05:43:05;21.50;;;12.88;;
20154;SDS011;10238;49.556;10.956;2022-12-10T05:45:53;22.35;;;12.32;;
20154;SDS011;10238;49.556;10.956;2022-12-10T05:48:45;22.38;;;12.15;;
20154;SDS011;10238;49.556;10.956;2022-12-10T05:51:35;21.90;;;12.85;;
20154;SDS011;10238;49.556;10.956;2022-12-10T05:54:25;22.65;;;11.93;;
20154;SDS011;10238;49.556;10.956;2022-12-10T05:57:13;23.02;;;12.73;;
20154;SDS011;10238;49.556;10.956;2022-12-10T06:00:02;22.02;;;12.45;;
20154;SDS011;10238;49.556;10.956;2022-12-10T06:02:51;25.17;;;13.05;;
20154;SDS011;10238;49.556;10.956;2022-12-10T06:05:40;22.40;;;12.45;;
20154;SDS011;10238;49.556;10.956;2022-12-10T06:08:29;22.00;;;12.07;;
20154;SDS011;10238;49.556;10.956;2022-12-10T06:11:19;20.92;;;12.07;;
20154;SDS011;10238;49.556;10.956;2022-12-10T06:14:08;23.52;;;12.50;;
20154;SDS011;10238;49.556;10.956;2022-12-10T06:16:57;20.25;;;11.70;;
20154;SDS011;10238;49.556;10.956;2022-12-10T06:19:44;22.38;;;11.80;;
20154;SDS011;10238;49.556;10.956;2022-12-10T06:22:33;24.00;;;12.43;;
20154;SDS011;10238;49.556;10.956;2022-12-10T06:25:21;23.05;;;11.88;;
20154;SDS011;10238;49.556;10.956;2022-12-10T06:28:10;23.42;;;12.27;;
20154;SDS011;10238;49.556;10.956;2022-12-10T06:30:59;22.10;;;12.02;;
20154;SDS011;10238;49.556;10.956;2022-12-10T06:33:47;23.38;;;12.23;;
20154;SDS011;10238;49.556;10.956;2022-12-10T06:36:35;22.35;;;12.45;;
20154;SDS011;10238;49.556;10.956;2022-12-10T06:39:23;23.15;;;12.82;;
20154;SDS011;10238;49.556;10.956;2022-12-10T06:42:11;23.00;;;12.32;;
20154;SDS011;10238;49.556;10.956;2022-12-10T06:45:02;18.95;;;11.20;;
20154;SDS011;10238;49.556;10.956;2022-12-10T06:47:53;23.13;;;12.35;;
20154;SDS011;10238;49.556;10.956;2022-12-10T06:50:41;19.15;;;11.05;;
20154;SDS011;10238;49.556;10.956;2022-12-10T06:53:29;22.85;;;12.65;;
20154;SDS011;10238;49.556;10.956;2022-12-10T06:56:18;25.48;;;12.70;;
20154;SDS011;10238;49.556;10.956;2022-12-10T06:59:06;20.45;;;11.40;;
20154;SDS011;10238;49.556;10.956;2022-12-10T07:01:55;25.92;;;12.98;;
20154;SDS011;10238;49.556;10.956;2022-12-10T07:04:44;22.83;;;12.05;;
20154;SDS011;10238;49.556;10.956;2022-12-10T07:07:34;24.35;;;13.23;;
20154;SDS011;10238;49.556;10.956;2022-12-10T07:10:22;24.55;;;12.77;;
20154;SDS011;10238;49.556;10.956;2022-12-10T07:13:10;26.73;;;13.73;;
20154;SDS011;10238;49.556;10.956;2022-12-10T07:15:58;27.48;;;14.60;;
20154;SDS011;10238;49.556;10.956;2022-12-10T07:18:47;29.27;;;14.00;;
20154;SDS011;10238;49.556;10.956;2022-12-10T07:21:38;26.05;;;14.18;;
20154;SDS011;10238;49.556;10.956;2022-12-10T07:24:28;25.92;;;13.10;;
20154;SDS011;10238;49.556;10.956;2022-12-10T07:27:16;26.05;;;14.07;;
20154;SDS011;10238;49.556;10.956;2022-12-10T07:30:04;28.63;;;14.52;;
20154;SDS011;10238;49.556;10.956;2022-12-10T07:32:53;25.23;;;14.10;;
20154;SDS011;10238;49.556;10.956;2022-12-10T07:35:43;28.77;;;14.80;;
20154;SDS011;10238;49.556;10.956;2022-12-10T07:38:33;28.47;;;14.33;;
20154;SDS011;10238;49.556;10.956;2022-12-10T07:41:23;26.50;;;14.00;;
20154;SDS011;10238;49.556;10.956;2022-12-10T07:44:12;32.90;;;16.92;;
20154;SDS011;10238;49.556;10.956;2022-12-10T07:47:00;34.28;;;17.25;;
20154;SDS011;10238;49.556;10.956;2022-12-10T07:49:48;34.72;;;16.90;;
20154;SDS011;10238;49.556;10.956;2022-12-10T07:52:38;29.83;;;16.30;;
20154;SDS011;10238;49.556;10.956;2022-12-10T07:55:25;33.58;;;17.23;;
20154;SDS011;10238;49.556;10.956;2022-12-10T07:58:16;34.85;;;18.13;;
20154;SDS011;10238;49.556;10.956;2022-12-10T08:01:07;36.05;;;17.00;;
20154;SDS011;10238;49.556;10.956;2022-12-10T08:03:56;34.00;;;17.77;;
20154;SDS011;10238;49.556;10.956;2022-12-10T08:06:44;32.45;;;17.42;;
20154;SDS011;10238;49.556;10.956;2022-12-10T08:09:34;33.83;;;16.85;;
20154;SDS011;10238;49.556;10.956;2022-12-10T08:12:22;30.88;;;16.38;;
20154;SDS011;10238;49.556;10.956;2022-12-10T08:15:10;34.20;;;17.42;;
20154;SDS011;10238;49.556;10.956;2022-12-10T08:17:58;32.50;;;16.60;;
20154;SDS011;10238;49.556;10.956;2022-12-10T08:20:46;29.17;;;16.17;;
20154;SDS011;10238;49.556;10.956;2022-12-10T08:23:35;34.38;;;16.88;;
20154;SDS011;10238;49.556;10.956;2022-12-10T08:26:29;31.83;;;16.90;;
20154;SDS011;10238;49.556;10.956;2022-12-10T08:29:18;29.13;;;15.60;;
20154;SDS011;10238;49.556;10.956;2022-12-10T08:32:06;34.47;;;15.88;;
20154;SDS011;10238;49.556;10.956;2022-12-10T08:34:54;30.05;;;17.02;;
20154;SDS011;10238;49.556;10.956;2022-12-10T08:37:42;31.65;;;16.10;;
20154;SDS011;10238;49.556;10.956;2022-12-10T08:40:30;33.17;;;17.48;;
20154;SDS011;10238;49.556;10.956;2022-12-10T08:43:19;35.65;;;17.73;;
20154;SDS011;10238;49.556;10.956;2022-12-10T08:46:08;32.10;;;16.90;;
20154;SDS011;10238;49.556;10.956;2022-12-10T08:48:57;31.38;;;16.98;;
20154;SDS011;10238;49.556;10.956;2022-12-10T08:51:45;33.60;;;17.02;;
20154;SDS011;10238;49.556;10.956;2022-12-10T08:54:33;30.27;;;17.08;;
20154;SDS011;10238;49.556;10.956;2022-12-10T08:57:22;31.60;;;16.42;;
20154;SDS011;10238;49.556;10.956;2022-12-10T09:00:12;32.03;;;16.58;;
20154;SDS011;10238;49.556;10.956;2022-12-10T09:03:00;31.17;;;16.13;;
20154;SDS011;10238;49.556;10.956;2022-12-10T09:05:49;29.63;;;15.82;;
20154;SDS011;10238;49.556;10.956;2022-12-10T09:08:37;33.53;;;17.77;;
20154;SDS011;10238;49.556;10.956;2022-12-10T09:11:27;35.22;;;17.13;;
20154;SDS011;10238;49.556;10.956;2022-12-10T09:14:17;34.50;;;17.65;;
20154;SDS011;10238;49.556;10.956;2022-12-10T09:17:07;37.30;;;18.52;;
20154;SDS011;10238;49.556;10.956;2022-12-10T09:19:58;37.90;;;18.35;;
20154;SDS011;10238;49.556;10.956;2022-12-10T09:22:48;36.70;;;18.88;;
20154;SDS011;10238;49.556;10.956;2022-12-10T09:25:37;29.55;;;16.30;;
20154;SDS011;10238;49.556;10.956;2022-12-10T09:28:25;33.85;;;16.65;;
20154;SDS011;10238;49.556;10.956;2022-12-10T09:31:13;29.27;;;15.77;;
20154;SDS011;10238;49.556;10.956;2022-12-10T09:34:06;34.42;;;17.80;;
20154;SDS011;10238;49.556;10.956;2022-12-10T09:36:54;34.75;;;17.63;;
20154;SDS011;10238;49.556;10.956;2022-12-10T09:39:42;33.33;;;16.90;;
20154;SDS011;10238;49.556;10.956;2022-12-10T09:42:33;34.15;;;17.92;;
20154;SDS011;10238;49.556;10.956;2022-12-10T09:45:32;29.40;;;16.27;;
20154;SDS011;10238;49.556;10.956;2022-12-10T09:48:27;28.45;;;15.15;;
20154;SDS011;10238;49.556;10.956;2022-12-10T09:51:23;32.30;;;16.88;;
20154;SDS011;10238;49.556;10.956;2022-12-10T09:54:16;32.88;;;16.08;;
20154;SDS011;10238;49.556;10.956;2022-12-10T09:57:10;27.88;;;16.25;;
20154;SDS011;10238;49.556;10.956;2022-12-10T10:00:15;30.80;;;16.17;;
20154;SDS011;10238;49.556;10.956;2022-12-10T10:03:06;34.10;;;17.52;;
20154;SDS011;10238;49.556;10.956;2022-12-10T10:05:58;36.03;;;17.45;;
20154;SDS011;10238;49.556;10.956;2022-12-10T10:08:55;32.67;;;16.35;;
20154;SDS011;10238;49.556;10.956;2022-12-10T10:14:35;31.25;;;16.60;;
20154;SDS011;10238;49.556;10.956;2022-12-10T10:17:27;29.88;;;16.27;;
20154;SDS011;10238;49.556;10.956;2022-12-10T10:20:19;31.67;;;16.80;;
20154;SDS011;10238;49.556;10.956;2022-12-10T10:23:07;32.17;;;17.30;;
20154;SDS011;10238;49.556;10.956;2022-12-10T10:26:00;30.23;;;16.38;;
20154;SDS011;10238;49.556;10.956;2022-12-10T10:28:50;35.03;;;17.27;;
20154;SDS011;10238;49.556;10.956;2022-12-10T10:31:42;31.52;;;16.48;;
20154;SDS011;10238;49.556;10.956;2022-12-10T10:34:31;31.60;;;16.98;;
20154;SDS011;10238;49.556;10.956;2022-12-10T10:37:19;31.98;;;16.92;;
20154;SDS011;10238;49.556;10.956;2022-12-10T10:40:15;28.95;;;16.58;;
20154;SDS011;10238;49.556;10.956;2022-12-10T10:43:14;31.65;;;17.02;;
20154;SDS011;10238;49.556;10.956;2022-12-10T10:46:06;33.33;;;17.58;;
20154;SDS011;10238;49.556;10.956;2022-12-10T10:49:11;31.38;;;15.68;;
20154;SDS011;10238;49.556;10.956;2022-12-10T10:52:04;32.83;;;16.90;;
20154;SDS011;10238;49.556;10.956;2022-12-10T10:54:59;29.60;;;15.82;;
20154;SDS011;10238;49.556;10.956;2022-12-10T10:57:48;30.75;;;16.27;;
20154;SDS011;10238;49.556;10.956;2022-12-10T11:00:40;31.42;;;16.50;;
20154;SDS011;10238;49.556;10.956;2022-12-10T11:03:44;29.52;;;16.50;;
20154;SDS011;10238;49.556;10.956;2022-12-10T11:06:34;32.42;;;16.38;;
20154;SDS011;10238;49.556;10.956;2022-12-10T11:09:24;29.33;;;16.13;;
20154;SDS011;10238;49.556;10.956;2022-12-10T11:12:23;31.55;;;16.80;;
20154;SDS011;10238;49.556;10.956;2022-12-10T11:15:31;27.80;;;14.90;;
20154;SDS011;10238;49.556;10.956;2022-12-10T11:21:16;26.88;;;15.02;;
20154;SDS011;10238;49.556;10.956;2022-12-10T11:24:09;27.23;;;15.90;;
20154;SDS011;10238;49.556;10.956;2022-12-10T11:27:00;30.88;;;17.20;;
20154;SDS011;10238;49.556;10.956;2022-12-10T11:29:52;30.85;;;17.27;;
20154;SDS011;10238;49.556;10.956;2022-12-10T11:32:50;30.80;;;16.33;;
20154;SDS011;10238;49.556;10.956;2022-12-10T11:35:50;32.58;;;17.83;;
20154;SDS011;10238;49.556;10.956;2022-12-10T11:38:49;36.40;;;18.67;;
20154;SDS011;10238;49.556;10.956;2022-12-10T11:41:45;32.58;;;16.75;;
20154;SDS011;10238;49.556;10.956;2022-12-10T11:44:43;36.25;;;18.58;;
20154;SDS011;10238;49.556;10.956;2022-12-10T11:47:44;36.03;;;19.52;;
20154;SDS011;10238;49.556;10.956;2022-12-10T11:50:47;34.08;;;18.80;;
20154;SDS011;10238;49.556;10.956;2022-12-10T11:53:45;33.60;;;16.88;;
20154;SDS011;10238;49.556;10.956;2022-12-10T11:56:43;31.35;;;16.83;;
20154;SDS011;10238;49.556;10.956;2022-12-10T11:59:36;35.92;;;17.55;;
20154;SDS011;10238;49.556;10.956;2022-12-10T12:06:19;30.77;;;18.15;;
20154;SDS011;10238;49.556;10.956;2022-12-10T12:09:20;37.60;;;19.40;;
20154;SDS011;10238;49.556;10.956;2022-12-10T12:12:19;35.88;;;18.25;;
20154;SDS011;10238;49.556;10.956;2022-12-10T12:15:15;35.30;;;17.38;;
20154;SDS011;10238;49.556;10.956;2022-12-10T12:18:09;35.50;;;19.40;;
20154;SDS011;10238;49.556;10.956;2022-12-10T12:21:09;37.97;;;18.52;;
20154;SDS011;10238;49.556;10.956;2022-12-10T12:24:03;38.20;;;18.92;;
20154;SDS011;10238;49.556;10.956;2022-12-10T12:26:59;33.83;;;16.77;;
20154;SDS011;10238;49.556;10.956;2022-12-10T12:29:57;33.90;;;18.27;;
20154;SDS011;10238;49.556;10.956;2022-12-10T12:32:54;30.83;;;16.65;;
20154;SDS011;10238;49.556;10.956;2022-12-10T12:35:46;34.83;;;17.65;;
20154;SDS011;10238;49.556;10.956;2022-12-10T12:38:38;34.78;;;18.33;;
20154;SDS011;10238;49.556;10.956;2022-12-10T12:41:34;33.88;;;18.63;;
20154;SDS011;10238;49.556;10.956;2022-12-10T12:44:28;35.83;;;18.40;;
20154;SDS011;10238;49.556;10.956;2022-12-10T12:47:23;34.53;;;18.63;;
20154;SDS011;10238;49.556;10.956;2022-12-10T12:50:25;32.67;;;17.27;;
20154;SDS011;10238;49.556;10.956;2022-12-10T12:53:18;34.85;;;18.40;;
20154;SDS011;10238;49.556;10.956;2022-12-10T12:56:10;34.10;;;17.55;;
20154;SDS011;10238;49.556;10.956;2022-12-10T12:59:10;34.35;;;19.17;;
20154;SDS011;10238;49.556;10.956;2022-12-10T13:02:10;35.95;;;17.98;;
20154;SDS011;10238;49.556;10.956;2022-12-10T13:05:11;33.50;;;17.35;;
20154;SDS011;10238;49.556;10.956;2022-12-10T13:11:16;33.33;;;18.83;;
20154;SDS011;10238;49.556;10.956;2022-12-10T13:14:27;32.40;;;18.05;;
20154;SDS011;10238;49.556;10.956;2022-12-10T13:17:25;36.47;;;19.23;;
20154;SDS011;10238;49.556;10.956;2022-12-10T13:20:28;34.47;;;18.02;;
20154;SDS011;10238;49.556;10.956;2022-12-10T13:23:29;33.50;;;18.52;;
20154;SDS011;10238;49.556;10.956;2022-12-10T13:26:27;33.97;;;18.48;;
20154;SDS011;10238;49.556;10.956;2022-12-10T13:29:23;30.85;;;18.13;;
20154;SDS011;10238;49.556;10.956;2022-12-10T13:32:14;34.90;;;18.00;;
20154;SDS011;10238;49.556;10.956;2022-12-10T13:35:18;29.52;;;16.60;;
20154;SDS011;10238;49.556;10.956;2022-12-10T13:38:18;33.05;;;17.88;;
20154;SDS011;10238;49.556;10.956;2022-12-10T13:41:08;32.88;;;17.83;;
20154;SDS011;10238;49.556;10.956;2022-12-10T13:44:31;29.13;;;16.98;;
20154;SDS011;10238;49.556;10.956;2022-12-10T13:47:24;37.17;;;19.48;;
20154;SDS011;10238;49.556;10.956;2022-12-10T13:50:19;34.85;;;18.02;;
20154;SDS011;10238;49.556;10.956;2022-12-10T13:53:19;40.60;;;19.20;;
20154;SDS011;10238;49.556;10.956;2022-12-10T13:56:18;32.63;;;17.98;;
20154;SDS011;10238;49.556;10.956;2022-12-10T13:59:16;32.80;;;18.23;;
20154;SDS011;10238;49.556;10.956;2022-12-10T14:02:20;35.10;;;18.60;;
20154;SDS011;10238;49.556;10.956;2022-12-10T14:05:25;31.70;;;17.40;;
20154;SDS011;10238;49.556;10.956;2022-12-10T14:08:26;32.28;;;17.40;;
20154;SDS011;10238;49.556;10.956;2022-12-10T14:11:20;30.75;;;17.80;;
20154;SDS011;10238;49.556;10.956;2022-12-10T14:14:11;32.15;;;17.63;;
20154;SDS011;10238;49.556;10.956;2022-12-10T14:17:05;32.53;;;17.30;;
20154;SDS011;10238;49.556;10.956;2022-12-10T14:22:47;34.88;;;17.73;;
20154;SDS011;10238;49.556;10.956;2022-12-10T14:25:41;36.30;;;17.45;;
20154;SDS011;10238;49.556;10.956;2022-12-10T14:28:30;31.33;;;15.90;;
20154;SDS011;10238;49.556;10.956;2022-12-10T14:31:23;34.95;;;17.52;;
20154;SDS011;10238;49.556;10.956;2022-12-10T14:34:15;33.90;;;17.15;;
20154;SDS011;10238;49.556;10.956;2022-12-10T14:37:10;35.33;;;17.38;;
20154;SDS011;10238;49.556;10.956;2022-12-10T14:40:01;35.45;;;17.23;;
20154;SDS011;10238;49.556;10.956;2022-12-10T14:42:54;33.70;;;17.15;;
20154;SDS011;10238;49.556;10.956;2022-12-10T14:45:49;37.97;;;18.98;;
20154;SDS011;10238;49.556;10.956;2022-12-10T14:48:41;32.83;;;17.67;;
20154;SDS011;10238;49.556;10.956;2022-12-10T14:51:32;36.53;;;17.50;;
20154;SDS011;10238;49.556;10.956;2022-12-10T14:54:26;34.15;;;16.10;;
20154;SDS011;10238;49.556;10.956;2022-12-10T14:57:18;28.27;;;15.10;;
20154;SDS011;10238;49.556;10.956;2022-12-10T15:00:10;31.63;;;16.52;;
20154;SDS011;10238;49.556;10.956;2022-12-10T15:03:08;29.90;;;15.15;;
20154;SDS011;10238;49.556;10.956;2022-12-10T15:05:59;29.08;;;15.10;;
20154;SDS011;10238;49.556;10.956;2022-12-10T15:08:49;25.70;;;14.35;;
20154;SDS011;10238;49.556;10.956;2022-12-10T15:11:42;27.05;;;13.73;;
20154;SDS011;10238;49.556;10.956;2022-12-10T15:14:31;27.48;;;13.73;;
20154;SDS011;10238;49.556;10.956;2022-12-10T15:17:31;24.20;;;13.13;;
20154;SDS011;10238;49.556;10.956;2022-12-10T15:20:23;21.42;;;12.30;;
20154;SDS011;10238;49.556;10.956;2022-12-10T15:23:18;21.92;;;11.73;;
20154;SDS011;10238;49.556;10.956;2022-12-10T15:26:10;24.35;;;12.43;;
20154;SDS011;10238;49.556;10.956;2022-12-10T15:32:22;19.83;;;11.20;;
20154;SDS011;10238;49.556;10.956;2022-12-10T15:35:13;19.52;;;11.27;;
20154;SDS011;10238;49.556;10.956;2022-12-10T15:38:03;20.27;;;10.55;;
20154;SDS011;10238;49.556;10.956;2022-12-10T15:40:56;20.05;;;11.18;;
20154;SDS011;10238;49.556;10.956;2022-12-10T15:43:50;19.50;;;11.20;;
20154;SDS011;10238;49.556;10.956;2022-12-10T15:46:48;19.92;;;10.73;;
20154;SDS011;10238;49.556;10.956;2022-12-10T15:49:36;19.27;;;10.25;;
20154;SDS011;10238;49.556;10.956;2022-12-10T15:52:25;18.23;;;10.07;;
20154;SDS011;10238;49.556;10.956;2022-12-10T15:55:15;19.88;;;10.43;;
20154;SDS011;10238;49.556;10.956;2022-12-10T15:58:04;16.27;;;10.48;;
20154;SDS011;10238;49.556;10.956;2022-12-10T16:00:56;17.75;;;10.13;;
20154;SDS011;10238;49.556;10.956;2022-12-10T16:03:46;17.50;;;10.32;;
20154;SDS011;10238;49.556;10.956;2022-12-10T16:06:34;19.48;;;10.25;;
20154;SDS011;10238;49.556;10.956;2022-12-10T16:09:22;16.88;;;10.18;;
20154;SDS011;10238;49.556;10.956;2022-12-10T16:12:10;17.45;;;10.30;;
20154;SDS011;10238;49.556;10.956;2022-12-10T16:14:59;19.25;;;10.48;;
20154;SDS011;10238;49.556;10.956;2022-12-10T16:17:48;16.70;;;9.60;;
20154;SDS011;10238;49.556;10.956;2022-12-10T16:20:38;17.75;;;10.23;;
20154;SDS011;10238;49.556;10.956;2022-12-10T16:23:26;16.75;;;9.77;;
20154;SDS011;10238;49.556;10.956;2022-12-10T16:26:14;17.55;;;9.40;;
20154;SDS011;10238;49.556;10.956;2022-12-10T16:29:04;17.88;;;9.45;;
20154;SDS011;10238;49.556;10.956;2022-12-10T16:31:52;17.20;;;10.02;;
20154;SDS011;10238;49.556;10.956;2022-12-10T16:34:40;17.35;;;9.13;;
20154;SDS011;10238;49.556;10.956;2022-12-10T16:37:30;18.58;;;10.15;;
20154;SDS011;10238;49.556;10.956;2022-12-10T16:40:18;15.88;;;9.13;;
20154;SDS011;10238;49.556;10.956;2022-12-10T16:43:08;17.90;;;10.00;;
20154;SDS011;10238;49.556;10.956;2022-12-10T16:46:00;18.92;;;10.43;;
20154;SDS011;10238;49.556;10.956;2022-12-10T16:48:49;21.27;;;11.15;;
20154;SDS011;10238;49.556;10.956;2022-12-10T16:51:37;18.10;;;10.13;;